Time;durP1;ratioP1;P1;durP2;ratioP2;P2;SDS_P1;SDS_P2;PMS_P1;PMS_P2;Temp;Humidity;BMP_temperature;BMP_pressure;BME280_temperature;BME280_humidity;BME280_pressure;Samples;Min_cycle;Max_cycle;Signal;HPM_P1;HPM_P2
2023/10/30 00:01:04;;;;;;;;;;;;;;;11.22;100.00;99366.28;4926429;29;19925;-67
2023/10/30 00:04:07;;;;;;;;;;;;;;;11.22;100.00;99364.50;4926693;29;19925;-67
2023/10/30 00:07:10;;;;;;;;;;;;;;;10.99;100.00;99365.38;4919378;29;20074;-68
2023/10/30 00:10:13;;;;;;;;;;;;;;;11.08;100.00;99367.31;4916764;29;19978;-68
2023/10/30 00:13:16;;;;;;;;;;;;;;;11.01;100.00;99368.69;4916948;29;20394;-68
2023/10/30 00:16:20;;;;;;;;;;;;;;;11.05;100.00;99389.28;4916109;29;19942;-68
2023/10/30 00:19:23;;;;;;;;;;;;;;;11.17;100.00;99377.94;4916696;29;20402;-68
2023/10/30 00:22:26;;;;;;;;;;;;;;;11.24;100.00;99380.94;4916808;29;19926;-68
2023/10/30 00:25:30;;;;;;;;;;;;;;;11.30;100.00;99383.13;4916289;29;19930;-68
2023/10/30 00:28:36;;;;;;;;;;;;;;;10.99;100.00;99370.59;4915662;29;19946;-68
2023/10/30 00:31:40;;;;;;;;;;;;;;;11.09;100.00;99372.41;4915210;29;20409;-68
2023/10/30 00:34:43;;;;;;;;;;;;;;;11.21;100.00;99372.50;4916457;29;19973;-67
2023/10/30 00:37:46;;;;;;;;;;;;;;;11.27;100.00;99375.47;4919892;29;19930;-68
2023/10/30 00:40:51;;;;;;;;;;;;;;;11.29;100.00;99373.56;4920526;29;20398;-68
2023/10/30 00:43:55;;;;;;;;;;;;;;;11.29;100.00;99378.81;4919581;29;19927;-68
2023/10/30 00:47:02;;;;;;;;;;;;;;;11.29;100.00;99375.34;4919882;29;20190;-68
2023/10/30 00:50:07;;;;;;;;;;;;;;;11.32;100.00;99375.13;4908257;29;19942;-68
2023/10/30 00:53:10;;;;;;;;;;;;;;;11.34;100.00;99387.16;4919656;29;20457;-68
2023/10/30 00:56:14;;;;;;;;;;;;;;;11.30;100.00;99392.75;4919711;29;19975;-67
2023/10/30 00:59:19;;;;;;;;;;;;;;;11.29;100.00;99404.97;4918857;29;20310;-68
2023/10/30 01:02:23;;;;;;;;;;;;;;;11.34;100.00;99399.41;4919570;29;20086;-68
2023/10/30 01:05:27;;;;;;;;;;;;;;;11.35;100.00;99399.28;4919656;29;20019;-67
2023/10/30 01:08:30;;;;;;;;;;;;;;;11.32;100.00;99391.66;4918407;29;20343;-68
2023/10/30 01:11:34;;;;;;;;;;;;;;;11.30;100.00;99395.38;4918731;29;19934;-67
2023/10/30 01:14:39;;;;;;;;;;;;;;;11.29;100.00;99397.13;4897567;29;19926;-67
2023/10/30 01:17:45;;;;;;;;;;;;;;;10.99;100.00;99412.44;4918514;29;19967;-67
2023/10/30 01:20:49;;;;;;;;;;;;;;;11.03;100.00;99413.88;4918702;29;19926;-68
2023/10/30 01:23:53;;;;;;;;;;;;;;;11.03;100.00;99411.28;4907733;29;19930;-67
2023/10/30 01:26:56;;;;;;;;;;;;;;;11.06;100.00;99408.44;4919393;29;19975;-67
2023/10/30 01:30:00;;;;;;;;;;;;;;;10.82;100.00;99411.88;4918516;29;20010;-67
2023/10/30 01:33:05;;;;;;;;;;;;;;;10.67;100.00;99416.38;4907874;29;20462;-67
2023/10/30 01:36:08;;;;;;;;;;;;;;;10.89;100.00;99412.25;4918559;29;20070;-67
2023/10/30 01:39:12;;;;;;;;;;;;;;;10.77;100.00;99413.97;4918999;29;19983;-67
2023/10/30 01:42:16;;;;;;;;;;;;;;;10.73;100.00;99412.50;4918387;29;19925;-67
2023/10/30 01:45:20;;;;;;;;;;;;;;;10.86;100.00;99402.03;4919359;29;20014;-68
2023/10/30 01:48:31;;;;;;;;;;;;;;;10.87;100.00;99393.22;4918369;29;19926;-68
2023/10/30 01:51:36;;;;;;;;;;;;;;;10.90;100.00;99393.84;4918960;29;20343;-68
2023/10/30 01:54:41;;;;;;;;;;;;;;;10.85;100.00;99392.50;4918981;29;20390;-68
2023/10/30 01:57:45;;;;;;;;;;;;;;;10.85;100.00;99405.59;4918796;29;19926;-68
2023/10/30 02:00:49;;;;;;;;;;;;;;;10.87;100.00;99404.50;4918296;29;19926;-68
2023/10/30 02:03:55;;;;;;;;;;;;;;;10.75;100.00;99400.16;4918703;29;19925;-67
2023/10/30 02:06:59;;;;;;;;;;;;;;;10.91;100.00;99403.38;4917743;29;19926;-68
2023/10/30 02:10:03;;;;;;;;;;;;;;;10.99;100.00;99413.28;4917631;29;19985;-67
2023/10/30 02:13:10;;;;;;;;;;;;;;;10.89;100.00;99420.94;4917794;29;20398;-68
2023/10/30 02:16:13;;;;;;;;;;;;;;;11.04;100.00;99410.31;4917504;29;19941;-67
2023/10/30 02:19:21;;;;;;;;;;;;;;;11.11;100.00;99414.19;4917329;29;19971;-67
2023/10/30 02:22:24;;;;;;;;;;;;;;;11.05;100.00;99396.31;4917897;29;19926;-67
2023/10/30 02:25:27;;;;;;;;;;;;;;;10.98;100.00;99387.25;4917464;29;19961;-68
2023/10/30 02:28:31;;;;;;;;;;;;;;;10.75;100.00;99383.63;4917437;29;19970;-67
2023/10/30 02:31:35;;;;;;;;;;;;;;;10.69;100.00;99384.94;4917234;29;19942;-67
2023/10/30 02:34:38;;;;;;;;;;;;;;;10.84;100.00;99378.59;4918456;29;19930;-68
2023/10/30 02:37:41;;;;;;;;;;;;;;;10.84;100.00;99375.13;4918002;29;19926;-68
2023/10/30 02:40:44;;;;;;;;;;;;;;;10.96;100.00;99386.50;4917266;29;19926;-68
2023/10/30 02:43:50;;;;;;;;;;;;;;;10.96;100.00;99379.50;4917753;29;19975;-68
2023/10/30 02:46:53;;;;;;;;;;;;;;;10.95;100.00;99385.69;4917742;29;20495;-68
2023/10/30 02:49:56;;;;;;;;;;;;;;;10.97;100.00;99381.16;4918096;29;19926;-68
2023/10/30 02:53:00;;;;;;;;;;;;;;;10.87;100.00;99375.75;4917334;29;19925;-68
2023/10/30 02:56:03;;;;;;;;;;;;;;;10.83;100.00;99391.78;4918201;29;20422;-67
2023/10/30 02:59:06;;;;;;;;;;;;;;;10.78;100.00;99386.84;4917009;29;19926;-68
2023/10/30 03:02:09;;;;;;;;;;;;;;;10.81;100.00;99384.03;4918104;29;19927;-68
2023/10/30 03:05:13;;;;;;;;;;;;;;;10.82;100.00;99375.25;4917128;29;19962;-68
2023/10/30 03:08:16;;;;;;;;;;;;;;;10.85;100.00;99380.28;4916453;29;19930;-72
2023/10/30 03:11:20;;;;;;;;;;;;;;;10.81;100.00;99370.94;4916719;29;19930;-67
2023/10/30 03:14:24;;;;;;;;;;;;;;;10.82;100.00;99370.03;4916604;29;19942;-68
2023/10/30 03:17:26;;;;;;;;;;;;;;;10.83;100.00;99356.00;4917318;29;20299;-68
2023/10/30 03:20:29;;;;;;;;;;;;;;;10.82;100.00;99358.75;4917503;29;19969;-68
2023/10/30 03:23:33;;;;;;;;;;;;;;;10.80;100.00;99358.84;4917387;29;20434;-68
2023/10/30 03:26:36;;;;;;;;;;;;;;;10.79;100.00;99356.34;4916363;29;19926;-67
2023/10/30 03:29:39;;;;;;;;;;;;;;;10.80;100.00;99360.63;4917477;29;20003;-67
2023/10/30 03:32:42;;;;;;;;;;;;;;;10.82;100.00;99364.81;4917397;29;19967;-67
2023/10/30 03:35:46;;;;;;;;;;;;;;;10.73;100.00;99372.47;4917303;29;20470;-67
2023/10/30 03:38:50;;;;;;;;;;;;;;;10.80;100.00;99366.69;4916785;29;19930;-67
2023/10/30 03:41:54;;;;;;;;;;;;;;;10.74;100.00;99366.28;4916710;29;20454;-67
2023/10/30 03:44:57;;;;;;;;;;;;;;;10.78;100.00;99368.56;4915179;29;19925;-67
2023/10/30 03:48:00;;;;;;;;;;;;;;;10.76;100.00;99367.84;4916799;29;20434;-68
2023/10/30 03:51:04;;;;;;;;;;;;;;;10.72;100.00;99374.25;4916787;29;19979;-67
2023/10/30 03:54:08;;;;;;;;;;;;;;;10.72;100.00;99384.72;4917039;29;20443;-67
2023/10/30 03:57:11;;;;;;;;;;;;;;;10.75;100.00;99391.47;4916271;29;19926;-67
2023/10/30 04:00:14;;;;;;;;;;;;;;;10.78;100.00;99392.09;4917255;29;19965;-68
2023/10/30 04:03:18;;;;;;;;;;;;;;;10.81;100.00;99394.50;4916902;29;19966;-67
2023/10/30 04:06:21;;;;;;;;;;;;;;;10.85;100.00;99395.97;4916843;29;20389;-68
2023/10/30 04:09:23;;;;;;;;;;;;;;;10.75;100.00;99389.69;4916766;29;20009;-68
2023/10/30 04:12:27;;;;;;;;;;;;;;;10.81;100.00;99380.59;4920731;29;20019;-67
2023/10/30 04:15:29;;;;;;;;;;;;;;;10.82;100.00;99370.03;4920777;29;20018;-67
2023/10/30 04:18:32;;;;;;;;;;;;;;;10.74;100.00;99361.88;4920960;29;20442;-67
2023/10/30 04:21:35;;;;;;;;;;;;;;;10.72;100.00;99369.03;4920922;29;20010;-67
2023/10/30 04:24:38;;;;;;;;;;;;;;;10.71;100.00;99357.69;4920632;29;20394;-67
2023/10/30 04:27:41;;;;;;;;;;;;;;;10.72;100.00;99361.19;4920542;29;19970;-67
2023/10/30 04:30:44;;;;;;;;;;;;;;;10.67;100.00;99358.03;4920488;29;19926;-67
2023/10/30 04:33:47;;;;;;;;;;;;;;;10.65;100.00;99352.91;4920483;29;20010;-68
2023/10/30 04:36:50;;;;;;;;;;;;;;;10.45;100.00;99356.94;4920359;29;20070;-67
2023/10/30 04:39:53;;;;;;;;;;;;;;;10.54;100.00;99354.63;4920340;29;20290;-67
2023/10/30 04:42:57;;;;;;;;;;;;;;;10.42;100.00;99351.94;4920189;29;20286;-67
2023/10/30 04:45:59;;;;;;;;;;;;;;;10.58;100.00;99359.53;4920226;29;19946;-67
2023/10/30 04:49:03;;;;;;;;;;;;;;;10.62;100.00;99354.91;4920212;29;19930;-69
2023/10/30 04:52:06;;;;;;;;;;;;;;;10.67;100.00;99360.66;4920084;29;20440;-68
2023/10/30 04:55:10;;;;;;;;;;;;;;;10.70;100.00;99357.81;4919158;29;20303;-69
2023/10/30 04:58:13;;;;;;;;;;;;;;;10.64;100.00;99355.66;4920310;29;19974;-68
2023/10/30 05:01:16;;;;;;;;;;;;;;;10.65;100.00;99367.75;4920227;29;19957;-68
2023/10/30 05:04:20;;;;;;;;;;;;;;;10.55;100.00;99372.81;4920054;29;19926;-68
2023/10/30 05:07:23;;;;;;;;;;;;;;;10.63;100.00;99369.66;4919721;29;19930;-67
2023/10/30 05:10:26;;;;;;;;;;;;;;;10.70;100.00;99376.97;4919641;29;19971;-68
2023/10/30 05:13:29;;;;;;;;;;;;;;;10.71;100.00;99373.38;4919195;29;19927;-68
2023/10/30 05:16:33;;;;;;;;;;;;;;;10.70;100.00;99376.97;4919364;29;19945;-68
2023/10/30 05:19:36;;;;;;;;;;;;;;;10.75;100.00;99378.41;4919612;29;19926;-67
2023/10/30 05:22:44;;;;;;;;;;;;;;;10.70;100.00;99381.34;4918496;29;19992;-67
2023/10/30 05:26:12;;;;;;;;;;;;;;;10.74;100.00;99393.25;4919747;29;19925;-71
2023/10/30 05:29:16;;;;;;;;;;;;;;;10.78;100.00;99393.88;4919520;29;19934;-69
2023/10/30 05:32:19;;;;;;;;;;;;;;;10.70;100.00;99392.66;4919403;29;19930;-67
2023/10/30 05:35:22;;;;;;;;;;;;;;;10.48;100.00;99406.38;4919317;29;20431;-67
2023/10/30 05:38:25;;;;;;;;;;;;;;;10.51;100.00;99396.66;4919185;29;19926;-66
2023/10/30 05:41:28;;;;;;;;;;;;;;;10.63;100.00;99399.25;4919186;29;20347;-71
2023/10/30 05:44:32;;;;;;;;;;;;;;;10.69;100.00;99398.81;4918005;29;19930;-68
2023/10/30 05:47:36;;;;;;;;;;;;;;;10.76;100.00;99404.47;4917978;29;19929;-69
2023/10/30 05:50:39;;;;;;;;;;;;;;;10.81;100.00;99410.19;4917144;29;20363;-69
2023/10/30 05:53:43;;;;;;;;;;;;;;;10.72;100.00;99410.84;4917141;29;20340;-69
2023/10/30 05:56:46;;;;;;;;;;;;;;;10.71;100.00;99404.75;4917088;29;19926;-68
2023/10/30 05:59:49;;;;;;;;;;;;;;;10.70;100.00;99412.72;4917112;29;20450;-69
2023/10/30 06:02:53;;;;;;;;;;;;;;;10.78;100.00;99415.63;4917433;29;19926;-68
2023/10/30 06:05:56;;;;;;;;;;;;;;;10.84;100.00;99416.97;4919084;29;20071;-69
2023/10/30 06:08:59;;;;;;;;;;;;;;;10.67;100.00;99418.19;4918730;29;19945;-68
2023/10/30 06:12:03;;;;;;;;;;;;;;;10.76;100.00;99419.31;4919048;29;19926;-69
2023/10/30 06:15:07;;;;;;;;;;;;;;;10.80;100.00;99432.06;4918659;29;19997;-68
2023/10/30 06:18:10;;;;;;;;;;;;;;;10.79;100.00;99433.00;4918595;29;19930;-68
2023/10/30 06:21:14;;;;;;;;;;;;;;;10.85;100.00;99427.34;4918476;29;19965;-68
2023/10/30 06:24:17;;;;;;;;;;;;;;;10.89;100.00;99418.31;4918457;29;19925;-68
2023/10/30 06:27:20;;;;;;;;;;;;;;;10.92;100.00;99417.28;4918299;29;20477;-68
2023/10/30 06:30:27;;;;;;;;;;;;;;;10.86;100.00;99417.72;4918317;29;19927;-68
2023/10/30 06:33:33;;;;;;;;;;;;;;;10.85;100.00;99422.13;4917999;29;20433;-69
2023/10/30 06:36:36;;;;;;;;;;;;;;;10.79;100.00;99412.09;4917119;29;20413;-68
2023/10/30 06:39:39;;;;;;;;;;;;;;;10.79;100.00;99406.84;4917267;29;19926;-68
2023/10/30 06:42:44;;;;;;;;;;;;;;;10.84;100.00;99393.44;4917359;29;19990;-69
2023/10/30 06:46:18;;;;;;;;;;;;;;;10.71;100.00;99398.69;4915982;29;21436;-68
2023/10/30 06:49:21;;;;;;;;;;;;;;;10.73;100.00;99406.47;4916231;29;19979;-68
2023/10/30 06:52:24;;;;;;;;;;;;;;;10.75;100.00;99418.44;4916386;29;19975;-69
2023/10/30 06:55:31;;;;;;;;;;;;;;;10.78;100.00;99420.84;4916854;29;20061;-68
2023/10/30 06:58:38;;;;;;;;;;;;;;;10.82;100.00;99416.28;4916668;29;19926;-69
2023/10/30 07:01:43;;;;;;;;;;;;;;;10.85;100.00;99411.66;4916509;29;19975;-68
2023/10/30 07:04:47;;;;;;;;;;;;;;;10.90;100.00;99409.53;4916354;29;19926;-67
2023/10/30 07:07:51;;;;;;;;;;;;;;;10.91;100.00;99411.22;4916273;29;19970;-67
2023/10/30 07:10:55;;;;;;;;;;;;;;;10.93;100.00;99421.56;4878940;29;19930;-68
2023/10/30 07:13:58;;;;;;;;;;;;;;;10.92;100.00;99412.03;4878694;29;19927;-68
2023/10/30 07:17:01;;;;;;;;;;;;;;;10.89;100.00;99423.56;4879260;29;19926;-69
2023/10/30 07:20:05;;;;;;;;;;;;;;;10.81;100.00;99438.94;4877226;29;19926;-69
2023/10/30 07:23:07;;;;;;;;;;;;;;;10.74;100.00;99448.16;4878741;29;20304;-69
2023/10/30 07:26:11;;;;;;;;;;;;;;;10.85;100.00;99445.66;4878507;29;19930;-69
2023/10/30 07:29:14;;;;;;;;;;;;;;;10.99;100.00;99442.03;4879008;29;19931;-69
2023/10/30 07:32:17;;;;;;;;;;;;;;;11.07;100.00;99431.88;4878663;29;20011;-69
2023/10/30 07:35:20;;;;;;;;;;;;;;;11.13;100.00;99433.19;4878279;29;20003;-69
2023/10/30 07:38:24;;;;;;;;;;;;;;;11.14;100.00;99440.13;4878653;29;19926;-69
2023/10/30 07:41:26;;;;;;;;;;;;;;;11.12;100.00;99429.75;4877795;29;20249;-69
2023/10/30 07:44:30;;;;;;;;;;;;;;;11.05;100.00;99433.75;4877111;29;20124;-69
2023/10/30 07:47:35;;;;;;;;;;;;;;;11.03;100.00;99427.78;4877481;29;19930;-70
2023/10/30 07:50:38;;;;;;;;;;;;;;;11.12;100.00;99423.69;4877702;29;20410;-69
2023/10/30 07:53:41;;;;;;;;;;;;;;;11.13;100.00;99425.34;4877996;29;19926;-70
2023/10/30 07:56:44;;;;;;;;;;;;;;;11.18;100.00;99425.88;4878044;29;20027;-69
2023/10/30 07:59:47;;;;;;;;;;;;;;;11.17;100.00;99435.50;4877836;29;19964;-69
2023/10/30 08:02:50;;;;;;;;;;;;;;;11.20;100.00;99430.97;4875176;29;19972;-69
2023/10/30 08:05:53;;;;;;;;;;;;;;;11.24;100.00;99428.03;4869813;29;19970;-70
2023/10/30 08:08:57;;;;;;;;;;;;;;;11.27;100.00;99417.34;4881699;29;20347;-69
2023/10/30 08:12:00;;;;;;;;;;;;;;;11.22;100.00;99424.69;4905730;29;20394;-70
2023/10/30 08:15:03;;;;;;;;;;;;;;;11.14;100.00;99417.41;4896199;29;19929;-68
2023/10/30 08:18:07;;;;;;;;;;;;;;;11.27;100.00;99392.97;4896133;29;19967;-68
2023/10/30 08:21:10;;;;;;;;;;;;;;;11.25;100.00;99395.69;4896960;29;19930;-69
2023/10/30 08:24:14;;;;;;;;;;;;;;;11.33;100.00;99398.59;4896605;29;20018;-68
2023/10/30 08:27:18;;;;;;;;;;;;;;;11.38;100.00;99400.84;4895806;29;20036;-68
2023/10/30 08:30:21;;;;;;;;;;;;;;;11.41;100.00;99398.84;4896335;29;20484;-68
2023/10/30 08:33:24;;;;;;;;;;;;;;;11.48;100.00;99398.41;4896175;29;19973;-68
2023/10/30 08:36:27;;;;;;;;;;;;;;;11.43;100.00;99390.06;4894574;29;19973;-68
2023/10/30 08:39:30;;;;;;;;;;;;;;;11.54;100.00;99395.31;4895596;29;19930;-68
2023/10/30 08:42:33;;;;;;;;;;;;;;;11.58;100.00;99396.75;4894260;29;19926;-68
2023/10/30 08:45:37;;;;;;;;;;;;;;;11.61;100.00;99392.16;4895304;29;20066;-69
2023/10/30 08:48:40;;;;;;;;;;;;;;;11.64;100.00;99386.66;4895429;29;19934;-69
2023/10/30 08:51:43;;;;;;;;;;;;;;;11.77;100.00;99402.31;4896049;29;19974;-69
2023/10/30 08:54:46;;;;;;;;;;;;;;;11.84;100.00;99379.97;4895848;29;20459;-69
2023/10/30 08:57:49;;;;;;;;;;;;;;;11.90;100.00;99378.69;4898959;29;19957;-69
2023/10/30 09:00:53;;;;;;;;;;;;;;;12.00;100.00;99365.72;4899211;29;19930;-69
2023/10/30 09:03:56;;;;;;;;;;;;;;;12.06;100.00;99357.34;4899339;29;20040;-69
2023/10/30 09:06:59;;;;;;;;;;;;;;;12.13;100.00;99355.13;4899175;29;20011;-69
2023/10/30 09:10:03;;;;;;;;;;;;;;;12.23;100.00;99348.22;4908719;29;19930;-69
2023/10/30 09:13:06;;;;;;;;;;;;;;;12.35;100.00;99347.25;4907475;29;19926;-69
2023/10/30 09:16:11;;;;;;;;;;;;;;;12.47;100.00;99343.66;4904809;29;19934;-70
2023/10/30 09:19:14;;;;;;;;;;;;;;;12.58;100.00;99350.69;4918107;29;20014;-71
2023/10/30 09:22:18;;;;;;;;;;;;;;;12.74;100.00;99347.69;4916972;29;20287;-71
2023/10/30 09:25:21;;;;;;;;;;;;;;;12.82;100.00;99354.91;4909661;29;20014;-71
2023/10/30 09:28:25;;;;;;;;;;;;;;;12.85;100.00;99349.44;4898793;29;19987;-74
2023/10/30 09:31:30;;;;;;;;;;;;;;;12.73;100.00;99346.84;4899229;29;19982;-70
2023/10/30 09:34:34;;;;;;;;;;;;;;;12.73;100.00;99344.22;4897725;29;19952;-70
2023/10/30 09:37:38;;;;;;;;;;;;;;;12.97;100.00;99320.41;4898554;29;20390;-73
2023/10/30 09:40:41;;;;;;;;;;;;;;;13.05;100.00;99327.69;4898867;29;19997;-73
2023/10/30 09:43:46;;;;;;;;;;;;;;;13.15;100.00;99315.47;4898542;29;19926;-73
2023/10/30 09:47:31;;;;;;;;;;;;;;;13.19;100.00;99316.03;4898509;29;19927;-70
2023/10/30 09:50:39;;;;;;;;;;;;;;;13.22;100.00;99302.66;4858127;29;19980;-70
2023/10/30 09:53:42;;;;;;;;;;;;;;;13.41;100.00;99307.25;4874144;29;20106;-70
2023/10/30 09:56:45;;;;;;;;;;;;;;;13.61;100.00;99308.19;4898436;29;20403;-69
2023/10/30 09:59:53;;;;;;;;;;;;;;;13.86;100.00;99304.34;4898125;29;19975;-68
2023/10/30 10:02:57;;;;;;;;;;;;;;;14.10;100.00;99296.97;4898389;29;19946;-67
2023/10/30 10:06:13;;;;;;;;;;;;;;;;;;;;;
2023/10/30 10:09:57;;;;;;;;;;;;;;;13.94;100.00;99313.22;4897127;29;19979;-71
2023/10/30 10:13:00;;;;;;;;;;;;;;;14.05;98.49;99312.31;4905598;29;19942;-71
2023/10/30 10:16:03;;;;;;;;;;;;;;;13.94;100.00;99307.13;4898995;29;19947;-71
2023/10/30 10:19:37;;;;;;;;;;;;;;;14.04;96.98;99302.75;4917349;29;19990;-71
2023/10/30 10:22:41;;;;;;;;;;;;;;;14.28;100.00;99301.59;4916268;29;19942;-71
2023/10/30 10:25:57;;;;;;;;;;;;;;;14.33;100.00;99302.03;4903862;29;19979;-71
2023/10/30 10:29:21;;;;;;;;;;;;;;;14.35;99.92;99307.97;4898439;29;19985;-71
2023/10/30 10:32:26;;;;;;;;;;;;;;;14.36;99.38;99296.50;4898061;29;19930;-71
2023/10/30 10:35:30;;;;;;;;;;;;;;;14.39;92.89;99285.72;4897584;29;20291;-71
2023/10/30 10:38:34;;;;;;;;;;;;;;;14.50;95.18;99277.69;4898261;29;19926;-71
2023/10/30 10:41:37;;;;;;;;;;;;;;;14.63;96.58;99267.78;4898446;29;19982;-70
2023/10/30 10:44:41;;;;;;;;;;;;;;;14.80;95.37;99274.16;4897801;29;19931;-70
2023/10/30 10:47:44;;;;;;;;;;;;;;;14.73;92.71;99264.34;4897327;29;20087;-71
2023/10/30 10:50:49;;;;;;;;;;;;;;;14.56;88.29;99256.16;4897335;29;20018;-71
2023/10/30 10:54:02;;;;;;;;;;;;;;;14.71;88.59;99250.47;4898497;29;19927;-71
2023/10/30 10:57:08;;;;;;;;;;;;;;;14.74;86.24;99245.78;4897732;29;19926;-70
2023/10/30 11:00:13;;;;;;;;;;;;;;;14.67;88.93;99235.94;4897674;29;19926;-71
2023/10/30 11:03:16;;;;;;;;;;;;;;;14.69;87.70;99234.00;4897478;29;19983;-70
2023/10/30 11:06:20;;;;;;;;;;;;;;;14.78;86.73;99217.41;4904414;29;19966;-70
2023/10/30 11:09:46;;;;;;;;;;;;;;;14.75;85.88;99205.34;4917699;29;20425;-70
2023/10/30 11:13:03;;;;;;;;;;;;;;;14.79;86.24;99205.91;4922450;29;19930;-71
2023/10/30 11:16:26;;;;;;;;;;;;;;;14.67;83.49;99194.69;4924724;29;19973;-70
2023/10/30 11:19:30;;;;;;;;;;;;;;;14.77;86.02;99200.78;4896288;29;19986;-70
2023/10/30 11:22:40;;;;;;;;;;;;;;;14.58;80.78;99191.09;4896482;29;20370;-70
2023/10/30 11:25:55;;;;;;;;;;;;;;;14.63;81.31;99190.66;4896689;29;20300;-71
2023/10/30 11:28:59;;;;;;;;;;;;;;;14.63;81.62;99173.06;4907408;29;19934;-71
2023/10/30 11:40:59;;;;;;;;;;;;;;;14.80;80.97;99162.81;4878464;29;20398;-72
2023/10/30 11:44:08;;;;;;;;;;;;;;;14.75;80.77;99162.44;4906111;29;19930;-71
2023/10/30 11:47:12;;;;;;;;;;;;;;;14.62;80.86;99157.44;4915155;29;19930;-71
2023/10/30 11:50:17;;;;;;;;;;;;;;;14.58;81.81;99158.66;4914500;29;19931;-71
2023/10/30 11:53:21;;;;;;;;;;;;;;;14.43;79.89;99147.72;4915368;29;20430;-71
2023/10/30 11:56:24;;;;;;;;;;;;;;;14.53;81.12;99139.88;4915143;29;19926;-71
2023/10/30 11:59:28;;;;;;;;;;;;;;;14.49;83.13;99125.31;4915148;29;20340;-71
2023/10/30 12:02:31;;;;;;;;;;;;;;;14.60;81.96;99115.47;4915145;29;20433;-71
2023/10/30 12:05:34;;;;;;;;;;;;;;;14.54;81.75;99109.94;4915192;29;20090;-70
2023/10/30 12:08:37;;;;;;;;;;;;;;;14.62;81.48;99103.03;4915209;29;20050;-71
2023/10/30 12:11:40;;;;;;;;;;;;;;;14.65;82.95;99102.75;4915725;29;19930;-72
2023/10/30 12:14:44;;;;;;;;;;;;;;;14.76;82.98;99109.66;4915689;29;19926;-70
2023/10/30 12:17:47;;;;;;;;;;;;;;;14.79;82.50;99074.34;4915423;29;19926;-70
2023/10/30 12:20:50;;;;;;;;;;;;;;;15.02;80.82;99074.81;4914916;29;19973;-69
2023/10/30 12:23:57;;;;;;;;;;;;;;;15.26;84.35;99067.25;4915231;29;19995;-69
2023/10/30 12:27:01;;;;;;;;;;;;;;;15.18;83.66;99068.94;4915226;29;19938;-70
2023/10/30 12:30:11;;;;;;;;;;;;;;;15.07;76.27;99064.69;4916275;29;20058;-70
2023/10/30 12:33:20;;;;;;;;;;;;;;;15.17;76.73;99054.13;4918305;29;20603;-68
2023/10/30 12:36:31;;;;;;;;;;;;;;;15.36;77.49;99048.75;4917448;29;19926;-67
2023/10/30 12:39:34;;;;;;;;;;;;;;;15.37;77.44;99049.59;4917294;29;20058;-67
2023/10/30 12:42:38;;;;;;;;;;;;;;;15.31;79.42;99049.19;4917546;29;19930;-68
2023/10/30 12:45:42;;;;;;;;;;;;;;;15.08;77.67;99038.22;4918722;29;20142;-69
2023/10/30 12:48:45;;;;;;;;;;;;;;;14.96;78.45;99034.09;4918390;29;19987;-67
2023/10/30 12:51:49;;;;;;;;;;;;;;;14.92;77.38;99030.09;4918293;29;19925;-68
2023/10/30 12:54:52;;;;;;;;;;;;;;;14.87;78.58;99021.84;4918329;29;20018;-69
2023/10/30 12:57:55;;;;;;;;;;;;;;;14.90;79.41;99011.00;4918021;29;19945;-69
2023/10/30 13:01:03;;;;;;;;;;;;;;;14.79;81.68;99012.00;4918729;29;20251;-68
2023/10/30 13:04:06;;;;;;;;;;;;;;;14.69;83.38;99003.31;4918845;29;20339;-68
2023/10/30 13:07:09;;;;;;;;;;;;;;;14.69;81.22;98992.81;4917851;29;20401;-69
2023/10/30 13:10:12;;;;;;;;;;;;;;;14.77;80.40;98982.41;4915104;29;19930;-69
2023/10/30 13:13:17;;;;;;;;;;;;;;;14.89;84.77;98977.75;4902653;29;20367;-69
2023/10/30 13:16:21;;;;;;;;;;;;;;;14.68;86.96;98980.63;4916581;29;19930;-73
2023/10/30 13:23:32;;;;;;;;;;;;;;;14.59;83.21;98978.84;4862975;29;19927;-70
2023/10/30 13:26:36;;;;;;;;;;;;;;;14.61;83.82;98974.25;4922112;29;19926;-69
2023/10/30 13:29:39;;;;;;;;;;;;;;;14.63;82.97;98973.16;4926590;29;20025;-70
2023/10/30 13:32:43;;;;;;;;;;;;;;;14.55;84.16;98953.78;4924080;29;19938;-70
2023/10/30 13:35:47;;;;;;;;;;;;;;;14.47;82.67;98956.28;4926588;29;19983;-71
2023/10/30 13:38:53;;;;;;;;;;;;;;;14.42;84.95;98954.06;4923161;29;19947;-69
2023/10/30 13:41:58;;;;;;;;;;;;;;;14.36;83.02;98952.88;4925248;29;19942;-69
2023/10/30 13:45:01;;;;;;;;;;;;;;;14.38;84.05;98963.22;4925432;29;19926;-69
2023/10/30 13:48:04;;;;;;;;;;;;;;;14.36;88.00;98944.97;4926195;29;19989;-69
2023/10/30 13:51:08;;;;;;;;;;;;;;;14.27;86.81;98951.09;4919507;29;19989;-69
2023/10/30 13:54:11;;;;;;;;;;;;;;;14.25;85.59;98937.25;4916974;29;20454;-69
2023/10/30 13:57:14;;;;;;;;;;;;;;;14.40;85.69;98935.00;4916953;29;19967;-69
2023/10/30 14:00:18;;;;;;;;;;;;;;;14.40;88.59;98933.19;4917095;29;20057;-68
2023/10/30 14:03:21;;;;;;;;;;;;;;;14.24;88.31;98932.16;4916381;29;20058;-69
2023/10/30 14:06:24;;;;;;;;;;;;;;;14.27;85.98;98926.59;4917641;29;19938;-68
2023/10/30 14:09:28;;;;;;;;;;;;;;;14.23;86.77;98922.59;4915093;29;19934;-69
2023/10/30 14:12:31;;;;;;;;;;;;;;;14.32;88.76;98916.47;4907952;29;19969;-68
2023/10/30 14:15:35;;;;;;;;;;;;;;;14.13;88.21;98909.47;4898075;29;20044;-71
2023/10/30 14:18:38;;;;;;;;;;;;;;;14.26;97.26;98890.75;4897870;29;19979;-69
2023/10/30 14:21:41;;;;;;;;;;;;;;;14.24;97.77;98898.78;4915408;29;19925;-69
2023/10/30 14:24:44;;;;;;;;;;;;;;;14.24;98.67;98883.03;4917072;29;19926;-69
2023/10/30 14:27:48;;;;;;;;;;;;;;;14.26;98.73;98882.88;4916654;29;19986;-69
2023/10/30 14:30:51;;;;;;;;;;;;;;;14.00;100.00;98880.88;4916404;29;20074;-69
2023/10/30 14:33:54;;;;;;;;;;;;;;;14.11;99.76;98877.25;4916518;29;20063;-69
2023/10/30 14:36:57;;;;;;;;;;;;;;;14.21;99.77;98882.50;4916284;29;19926;-68
2023/10/30 14:40:00;;;;;;;;;;;;;;;14.15;100.00;98879.44;4916329;29;19945;-68
2023/10/30 14:43:04;;;;;;;;;;;;;;;14.07;100.00;98876.72;4922340;29;19929;-68
2023/10/30 14:46:07;;;;;;;;;;;;;;;14.08;100.00;98873.09;4929957;29;20029;-69
2023/10/30 14:49:09;;;;;;;;;;;;;;;14.06;100.00;98872.41;4915936;29;19990;-69
2023/10/30 14:52:13;;;;;;;;;;;;;;;14.10;100.00;98855.41;4916349;29;19973;-68
2023/10/30 14:55:16;;;;;;;;;;;;;;;14.13;100.00;98860.34;4916002;29;19948;-69
2023/10/30 14:58:19;;;;;;;;;;;;;;;14.08;100.00;98852.09;4916382;29;19942;-69
2023/10/30 15:01:23;;;;;;;;;;;;;;;14.05;100.00;98846.28;4916055;29;19926;-69
2023/10/30 15:04:26;;;;;;;;;;;;;;;14.03;100.00;98859.56;4919552;29;19965;-69
2023/10/30 15:07:29;;;;;;;;;;;;;;;13.99;100.00;98837.16;4934770;29;19969;-69
2023/10/30 15:10:33;;;;;;;;;;;;;;;13.93;100.00;98837.75;4901752;29;19971;-69
2023/10/30 15:13:37;;;;;;;;;;;;;;;13.91;100.00;98834.41;4913413;29;20010;-69
2023/10/30 15:16:40;;;;;;;;;;;;;;;13.98;100.00;98834.72;4914287;29;19978;-70
2023/10/30 15:19:44;;;;;;;;;;;;;;;13.93;100.00;98835.94;4914208;29;20478;-70
2023/10/30 15:22:47;;;;;;;;;;;;;;;13.88;100.00;98825.03;4917525;29;19930;-69
2023/10/30 15:25:50;;;;;;;;;;;;;;;13.79;100.00;98841.66;4923330;29;20013;-69
2023/10/30 15:28:53;;;;;;;;;;;;;;;13.78;100.00;98832.09;4923497;29;19966;-70
2023/10/30 15:31:56;;;;;;;;;;;;;;;13.75;100.00;98829.75;4924254;29;20025;-69
2023/10/30 15:35:00;;;;;;;;;;;;;;;13.66;100.00;98831.47;4924740;29;20468;-69
2023/10/30 15:38:02;;;;;;;;;;;;;;;13.46;100.00;98840.31;4925078;29;19925;-70
2023/10/30 15:41:05;;;;;;;;;;;;;;;13.21;100.00;98826.78;4921138;29;19927;-70
2023/10/30 15:44:08;;;;;;;;;;;;;;;13.42;100.00;98825.81;4921742;29;19989;-70
2023/10/30 15:47:12;;;;;;;;;;;;;;;13.50;100.00;98818.06;4922679;29;19969;-69
2023/10/30 15:50:16;;;;;;;;;;;;;;;13.55;100.00;98826.34;4924476;29;19934;-69
2023/10/30 15:53:20;;;;;;;;;;;;;;;13.52;100.00;98823.19;4926047;29;20449;-70
2023/10/30 15:56:23;;;;;;;;;;;;;;;13.39;100.00;98813.78;4926591;29;19973;-70
2023/10/30 15:59:31;;;;;;;;;;;;;;;13.31;100.00;98828.59;4922672;29;20311;-70
2023/10/30 16:02:39;;;;;;;;;;;;;;;13.26;100.00;98814.06;4924683;29;19973;-70
2023/10/30 16:05:44;;;;;;;;;;;;;;;13.31;100.00;98812.84;4926104;29;19969;-70